createdAt,value
2023-04-30T00:00:11.248Z,17.36
2023-04-30T00:02:39.674Z,17.34
2023-04-30T00:05:08.778Z,17.34
2023-04-30T00:07:36.765Z,17.40
2023-04-30T00:10:05.950Z,17.42
2023-04-30T00:12:33.748Z,17.39
2023-04-30T00:15:01.811Z,17.40
2023-04-30T00:17:29.777Z,17.38
2023-04-30T00:19:57.354Z,17.32
2023-04-30T00:22:25.242Z,17.29
2023-04-30T00:24:53.251Z,17.28
2023-04-30T00:27:21.138Z,17.29
2023-04-30T00:29:48.997Z,17.33
2023-04-30T00:32:17.010Z,17.37
2023-04-30T00:34:44.899Z,17.39
2023-04-30T00:37:12.869Z,17.33
2023-04-30T00:39:40.470Z,17.29
2023-04-30T00:42:10.985Z,17.28
2023-04-30T00:44:38.775Z,17.33
2023-04-30T00:47:06.312Z,17.31
2023-04-30T00:49:33.760Z,17.19
2023-04-30T00:52:01.446Z,17.10
2023-04-30T00:54:29.604Z,16.95
2023-04-30T00:56:57.529Z,16.90
2023-04-30T00:59:26.152Z,16.72
2023-04-30T01:01:53.781Z,16.66
2023-04-30T01:04:21.768Z,16.55
2023-04-30T01:06:49.229Z,16.48
2023-04-30T01:09:18.529Z,16.49
2023-04-30T01:12:09.808Z,16.46
2023-04-30T01:15:09.678Z,16.45
2023-04-30T01:17:45.623Z,16.42
2023-04-30T01:20:13.588Z,16.43
2023-04-30T01:22:49.754Z,16.29
2023-04-30T01:25:40.107Z,16.24
2023-04-30T01:28:11.085Z,16.31
2023-04-30T01:30:40.796Z,16.32
2023-04-30T01:33:08.593Z,16.25
2023-04-30T01:35:58.460Z,16.30
2023-04-30T01:38:43.984Z,16.35
2023-04-30T01:41:34.878Z,16.22
2023-04-30T01:44:13.492Z,16.18
2023-04-30T01:46:47.402Z,16.08
2023-04-30T01:49:26.540Z,16.11
2023-04-30T01:51:57.375Z,16.05
2023-04-30T01:54:35.240Z,16.06
2023-04-30T01:57:04.652Z,16.09
2023-04-30T01:59:39.181Z,16.11
2023-04-30T02:02:06.840Z,16.22
2023-04-30T02:04:34.416Z,16.25
2023-04-30T02:07:01.954Z,16.14
2023-04-30T02:09:29.860Z,16.14
2023-04-30T02:11:57.968Z,16.19
2023-04-30T02:14:25.854Z,16.23
2023-04-30T02:16:53.811Z,16.23
2023-04-30T02:19:21.684Z,16.19
2023-04-30T02:21:49.227Z,16.19
2023-04-30T02:24:16.764Z,16.23
2023-04-30T02:26:44.931Z,16.24
2023-04-30T02:29:12.873Z,16.20
2023-04-30T02:31:40.442Z,16.13
2023-04-30T02:34:09.895Z,16.08
2023-04-30T02:36:38.022Z,16.07
2023-04-30T02:39:06.287Z,16.10
2023-04-30T02:41:33.831Z,16.07
2023-04-30T02:44:01.352Z,16.06
2023-04-30T02:46:29.265Z,15.97
2023-04-30T02:48:56.701Z,15.89
2023-04-30T02:51:24.561Z,15.86
2023-04-30T02:53:52.109Z,15.95
2023-04-30T02:56:20.010Z,15.93
2023-04-30T02:58:47.793Z,15.79
2023-04-30T03:01:15.591Z,15.87
2023-04-30T03:03:43.723Z,15.88
2023-04-30T03:06:11.701Z,15.90
2023-04-30T03:08:39.575Z,15.84
2023-04-30T03:11:08.232Z,15.78
2023-04-30T03:13:36.078Z,15.78
2023-04-30T03:16:05.118Z,15.75
2023-04-30T03:18:33.089Z,15.72
2023-04-30T03:21:01.306Z,15.71
2023-04-30T03:23:29.231Z,15.73
2023-04-30T03:25:57.488Z,15.73
2023-04-30T03:28:25.463Z,15.69
2023-04-30T03:30:53.482Z,15.65
2023-04-30T03:33:22.152Z,15.70
2023-04-30T03:35:50.735Z,15.77
2023-04-30T03:38:18.616Z,15.82
2023-04-30T03:40:46.190Z,15.78
2023-04-30T03:43:13.975Z,15.77
2023-04-30T03:45:42.321Z,15.75
2023-04-30T03:48:09.764Z,15.75
2023-04-30T03:50:37.411Z,15.79
2023-04-30T03:53:05.356Z,15.73
2023-04-30T03:55:33.162Z,15.76
2023-04-30T03:58:00.735Z,15.70
2023-04-30T04:00:28.247Z,15.73
2023-04-30T04:02:55.381Z,15.71
2023-04-30T04:05:23.210Z,15.66
2023-04-30T04:07:50.855Z,15.68
2023-04-30T04:10:18.828Z,15.72
2023-04-30T04:12:46.582Z,15.74
2023-04-30T04:15:13.665Z,15.69
2023-04-30T04:17:42.146Z,15.71
2023-04-30T04:20:14.126Z,15.74
2023-04-30T04:22:42.103Z,15.70
2023-04-30T04:25:11.324Z,15.75
2023-04-30T04:27:39.274Z,15.77
2023-04-30T04:30:09.769Z,15.75
2023-04-30T04:32:48.369Z,15.77
2023-04-30T04:35:16.375Z,15.78
2023-04-30T04:37:43.856Z,15.82
2023-04-30T04:40:12.548Z,15.92
2023-04-30T04:42:40.129Z,15.90
2023-04-30T04:45:08.775Z,15.93
2023-04-30T04:47:36.913Z,15.98
2023-04-30T04:50:04.945Z,16.04
2023-04-30T04:52:32.639Z,16.06
2023-04-30T04:55:00.584Z,16.15
2023-04-30T04:57:28.533Z,16.13
2023-04-30T04:59:57.501Z,16.12
2023-04-30T05:02:25.539Z,16.13
2023-04-30T05:04:53.391Z,16.14
2023-04-30T05:07:21.332Z,16.18
2023-04-30T05:09:49.165Z,16.25
2023-04-30T05:12:16.595Z,16.35
2023-04-30T05:14:44.896Z,16.42
2023-04-30T05:17:12.334Z,16.54
2023-04-30T05:19:40.237Z,16.60
2023-04-30T05:22:07.791Z,16.72
2023-04-30T05:24:35.700Z,16.84
2023-04-30T05:27:06.053Z,16.92
2023-04-30T05:29:33.498Z,17.01
2023-04-30T05:32:02.058Z,17.11
2023-04-30T05:34:29.597Z,17.14
2023-04-30T05:37:01.593Z,17.27
2023-04-30T05:39:29.566Z,17.31
2023-04-30T05:41:57.314Z,17.43
2023-04-30T05:44:25.399Z,17.54
2023-04-30T05:46:52.928Z,17.60
2023-04-30T05:49:20.769Z,17.69
2023-04-30T05:51:48.653Z,17.72
2023-04-30T05:54:16.157Z,17.73
2023-04-30T05:56:43.944Z,17.82
2023-04-30T05:59:11.658Z,17.88
2023-04-30T06:01:39.700Z,17.95
2023-04-30T06:04:09.304Z,17.95
2023-04-30T06:06:36.979Z,17.97
2023-04-30T06:09:05.226Z,18.06
2023-04-30T06:11:32.666Z,18.08
2023-04-30T06:14:00.606Z,18.12
2023-04-30T06:16:28.137Z,18.14
2023-04-30T06:18:55.701Z,18.17
2023-04-30T06:21:26.044Z,18.19
2023-04-30T06:23:53.547Z,18.18
2023-04-30T06:26:21.147Z,18.17
2023-04-30T06:28:48.691Z,18.21
2023-04-30T06:31:17.310Z,18.29
2023-04-30T06:33:44.882Z,18.36
2023-04-30T06:36:12.263Z,18.39
2023-04-30T06:38:40.098Z,18.42
2023-04-30T06:41:09.148Z,18.48
2023-04-30T06:43:37.018Z,18.52
2023-04-30T06:46:06.653Z,18.60
2023-04-30T06:48:34.569Z,18.69
2023-04-30T06:51:02.899Z,18.80
2023-04-30T06:53:30.754Z,18.85
2023-04-30T06:55:58.711Z,18.90
2023-04-30T06:58:26.835Z,18.97
2023-04-30T07:00:54.397Z,19.01
2023-04-30T07:03:22.151Z,19.05
2023-04-30T07:05:50.461Z,19.07
2023-04-30T07:08:24.483Z,19.17
2023-04-30T07:10:52.566Z,19.10
2023-04-30T07:13:19.973Z,19.06
2023-04-30T07:15:47.481Z,19.10
2023-04-30T07:18:16.484Z,19.18
2023-04-30T07:20:44.340Z,19.23
2023-04-30T07:23:12.243Z,19.30
2023-04-30T07:25:46.266Z,19.41
2023-04-30T07:28:13.888Z,19.50
2023-04-30T07:30:41.777Z,19.59
2023-04-30T07:33:09.701Z,19.68
2023-04-30T07:35:37.452Z,19.77
2023-04-30T07:38:05.956Z,19.87
2023-04-30T07:40:36.305Z,19.96
2023-04-30T07:43:05.160Z,20.06
2023-04-30T07:45:33.937Z,20.18
2023-04-30T07:48:01.566Z,20.33
2023-04-30T07:50:33.734Z,20.39
2023-04-30T07:53:01.922Z,20.41
2023-04-30T07:55:29.439Z,20.48
2023-04-30T07:57:56.964Z,20.51
2023-04-30T08:00:24.217Z,20.63
2023-04-30T08:02:52.275Z,20.66
2023-04-30T08:05:20.473Z,20.67
2023-04-30T08:07:48.435Z,20.69
2023-04-30T08:10:16.476Z,20.57
2023-04-30T08:12:44.357Z,20.65
2023-04-30T08:15:12.226Z,20.70
2023-04-30T08:17:40.173Z,20.73
2023-04-30T08:20:10.690Z,20.74
2023-04-30T08:22:38.559Z,20.74
2023-04-30T08:25:07.593Z,20.76
2023-04-30T08:27:35.418Z,20.81
2023-04-30T08:30:03.752Z,20.83
2023-04-30T08:32:31.632Z,20.84
2023-04-30T08:34:59.481Z,20.85
2023-04-30T08:37:27.381Z,20.85
2023-04-30T08:39:55.561Z,20.92
2023-04-30T08:42:25.840Z,20.93
2023-04-30T08:44:53.366Z,21.03
2023-04-30T08:47:21.811Z,21.13
2023-04-30T08:49:48.577Z,21.24
2023-04-30T08:52:16.565Z,21.31
2023-04-30T08:54:44.827Z,21.46
2023-04-30T08:57:12.680Z,21.59
2023-04-30T08:59:40.602Z,21.73
2023-04-30T09:02:10.171Z,21.85
2023-04-30T09:04:37.965Z,21.94
2023-04-30T09:07:06.869Z,22.07
2023-04-30T09:09:39.426Z,22.07
2023-04-30T09:12:17.799Z,22.10
2023-04-30T09:15:04.971Z,22.16
2023-04-30T09:17:33.019Z,22.17
2023-04-30T09:20:12.580Z,22.22
2023-04-30T09:22:41.501Z,22.32
2023-04-30T09:25:08.804Z,22.37
2023-04-30T09:27:36.536Z,22.41
2023-04-30T09:30:04.888Z,22.36
2023-04-30T09:32:32.950Z,22.39
2023-04-30T09:35:00.626Z,22.42
2023-04-30T09:37:38.357Z,22.44
2023-04-30T09:40:05.502Z,22.57
2023-04-30T09:42:33.692Z,22.53
2023-04-30T09:45:01.731Z,22.54
2023-04-30T09:47:32.197Z,22.54
2023-04-30T09:50:00.648Z,22.68
2023-04-30T09:52:27.802Z,22.76
2023-04-30T09:54:55.391Z,22.80
2023-04-30T09:57:24.005Z,22.92
2023-04-30T09:59:51.705Z,23.03
2023-04-30T10:02:21.310Z,23.03
2023-04-30T10:04:50.019Z,23.14
2023-04-30T10:07:20.116Z,23.30
2023-04-30T10:10:03.255Z,23.30
2023-04-30T10:12:52.456Z,23.22
2023-04-30T10:15:30.831Z,23.26
2023-04-30T10:18:46.321Z,23.37
2023-04-30T10:21:14.211Z,23.43
2023-04-30T10:23:43.812Z,23.44
2023-04-30T10:26:16.372Z,23.45
2023-04-30T10:28:43.950Z,23.53
2023-04-30T10:31:11.209Z,23.63
2023-04-30T10:33:58.717Z,23.70
2023-04-30T10:37:08.455Z,23.67
2023-04-30T10:39:36.178Z,23.76
2023-04-30T10:42:03.876Z,23.79
2023-04-30T10:44:38.401Z,23.83
2023-04-30T10:47:07.207Z,23.93
2023-04-30T10:49:35.131Z,23.96
2023-04-30T10:52:03.699Z,23.98
2023-04-30T10:54:37.624Z,24.10
2023-04-30T10:57:14.301Z,24.19
2023-04-30T11:00:08.483Z,24.31
2023-04-30T11:02:44.149Z,24.25
2023-04-30T11:05:15.626Z,24.24
2023-04-30T11:07:50.548Z,24.23
2023-04-30T11:10:21.216Z,24.35
2023-04-30T11:12:49.282Z,24.41
2023-04-30T11:15:18.768Z,24.34
2023-04-30T11:17:46.054Z,24.44
2023-04-30T11:20:13.956Z,24.52
2023-04-30T11:22:41.701Z,24.59
2023-04-30T11:25:16.078Z,24.53
2023-04-30T11:27:47.681Z,24.63
2023-04-30T11:30:16.026Z,24.81
2023-04-30T11:32:48.083Z,24.89
2023-04-30T11:35:18.799Z,24.95
2023-04-30T11:37:46.518Z,25.01
2023-04-30T11:40:14.441Z,25.20
2023-04-30T11:42:47.021Z,25.40
2023-04-30T11:45:17.581Z,25.34
2023-04-30T11:47:56.836Z,25.55
2023-04-30T11:50:30.286Z,25.87
2023-04-30T11:52:57.649Z,26.29
2023-04-30T11:55:25.764Z,26.48
2023-04-30T11:57:58.782Z,26.84
2023-04-30T12:00:30.210Z,27.22
2023-04-30T12:02:57.905Z,27.73
2023-04-30T12:05:25.889Z,28.37
2023-04-30T12:07:57.697Z,28.84
2023-04-30T12:10:28.824Z,28.93
2023-04-30T12:12:56.564Z,29.27
2023-04-30T12:15:28.068Z,30.05
2023-04-30T12:18:00.052Z,30.53
2023-04-30T12:20:28.996Z,30.45
2023-04-30T12:22:56.168Z,29.85
2023-04-30T12:25:23.561Z,28.96
2023-04-30T12:27:53.742Z,28.55
2023-04-30T12:30:27.574Z,28.19
2023-04-30T12:32:54.868Z,27.91
2023-04-30T12:35:23.636Z,27.90
2023-04-30T12:37:52.709Z,27.73
2023-04-30T12:40:27.107Z,27.78
2023-04-30T12:43:08.461Z,27.92
2023-04-30T12:45:48.870Z,27.97
2023-04-30T12:48:16.007Z,28.23
2023-04-30T12:50:43.264Z,28.62
2023-04-30T12:53:10.572Z,29.45
2023-04-30T12:55:39.451Z,29.60
2023-04-30T12:58:11.421Z,29.90
2023-04-30T13:00:51.099Z,30.90
2023-04-30T13:03:20.042Z,32.01
2023-04-30T13:05:48.775Z,32.22
2023-04-30T13:08:16.817Z,31.99
2023-04-30T13:10:44.557Z,30.89
2023-04-30T13:13:12.505Z,30.22
2023-04-30T13:15:40.801Z,29.90
2023-04-30T13:18:12.600Z,29.91
2023-04-30T13:20:40.397Z,29.91
2023-04-30T13:23:08.483Z,29.83
2023-04-30T13:25:36.134Z,29.52
2023-04-30T13:28:04.051Z,29.14
2023-04-30T13:30:31.935Z,28.63
2023-04-30T13:32:59.860Z,28.59
2023-04-30T13:35:27.047Z,28.61
2023-04-30T13:37:55.060Z,28.87
2023-04-30T13:40:22.989Z,29.17
2023-04-30T13:42:50.520Z,29.18
2023-04-30T13:45:18.291Z,28.92
2023-04-30T13:47:46.207Z,28.69
2023-04-30T13:50:13.643Z,28.44
2023-04-30T13:52:41.165Z,28.35
2023-04-30T13:55:29.764Z,28.58
2023-04-30T13:57:58.563Z,28.57
2023-04-30T14:00:26.656Z,28.48
2023-04-30T14:02:54.718Z,28.72
2023-04-30T14:05:22.842Z,28.62
2023-04-30T14:07:50.379Z,28.75
2023-04-30T14:10:18.473Z,28.68
2023-04-30T14:12:46.158Z,28.44
2023-04-30T14:15:13.650Z,28.26
2023-04-30T14:17:41.480Z,28.09
2023-04-30T14:20:13.816Z,28.02
2023-04-30T14:22:41.716Z,28.27
2023-04-30T14:25:11.429Z,29.08
2023-04-30T14:27:39.498Z,30.24
2023-04-30T14:30:09.432Z,30.99
2023-04-30T14:32:37.681Z,31.80
2023-04-30T14:35:08.180Z,32.17
2023-04-30T14:37:35.948Z,32.06
2023-04-30T14:40:06.727Z,31.73
2023-04-30T14:42:33.951Z,31.92
2023-04-30T14:45:01.460Z,31.83
2023-04-30T14:47:29.265Z,31.45
2023-04-30T14:49:59.047Z,31.57
2023-04-30T14:52:27.184Z,31.79
2023-04-30T14:54:54.657Z,31.39
2023-04-30T14:57:23.850Z,31.38
2023-04-30T14:59:52.739Z,31.40
2023-04-30T15:02:21.886Z,31.48
2023-04-30T15:04:49.686Z,31.72
2023-04-30T15:07:17.626Z,32.02
2023-04-30T15:09:46.722Z,32.39
2023-04-30T15:12:15.209Z,32.57
2023-04-30T15:14:43.038Z,32.53
2023-04-30T15:17:11.761Z,32.41
2023-04-30T15:19:39.161Z,32.47
2023-04-30T15:22:10.107Z,32.37
2023-04-30T15:24:38.268Z,31.74
2023-04-30T15:27:06.053Z,30.92
2023-04-30T15:29:33.818Z,30.54
2023-04-30T15:32:04.604Z,29.83
2023-04-30T15:34:32.299Z,29.32
2023-04-30T15:36:59.924Z,28.64
2023-04-30T15:39:27.360Z,28.38
2023-04-30T15:41:54.813Z,28.15
2023-04-30T15:44:22.700Z,27.73
2023-04-30T15:46:51.695Z,27.38
2023-04-30T15:49:19.401Z,27.16
2023-04-30T15:51:47.257Z,26.86
2023-04-30T15:54:14.955Z,26.59
2023-04-30T15:56:42.360Z,26.33
2023-04-30T15:59:10.223Z,26.13
2023-04-30T16:01:41.745Z,26.12
2023-04-30T16:04:09.771Z,25.93
2023-04-30T16:06:37.112Z,25.68
2023-04-30T16:09:07.599Z,25.48
2023-04-30T16:11:36.164Z,25.49
2023-04-30T16:14:03.621Z,25.37
2023-04-30T16:16:31.281Z,25.18
2023-04-30T16:18:58.690Z,25.08
2023-04-30T16:21:27.290Z,24.87
2023-04-30T16:23:55.150Z,24.66
2023-04-30T16:26:23.378Z,24.51
2023-04-30T16:28:51.404Z,24.43
2023-04-30T16:31:22.783Z,24.35
2023-04-30T16:33:50.773Z,24.33
2023-04-30T16:36:18.280Z,24.31
2023-04-30T16:38:46.768Z,24.25
2023-04-30T16:41:40.666Z,24.18
2023-04-30T16:44:08.196Z,24.13
2023-04-30T16:46:36.278Z,24.07
2023-04-30T16:49:04.126Z,23.99
2023-04-30T16:51:32.941Z,23.90
2023-04-30T16:54:00.799Z,23.80
2023-04-30T16:56:28.928Z,23.70
2023-04-30T16:58:56.519Z,23.60
2023-04-30T17:01:24.127Z,23.64
2023-04-30T17:03:52.074Z,23.46
2023-04-30T17:06:19.655Z,23.35
2023-04-30T17:08:47.416Z,23.29
2023-04-30T17:11:19.209Z,23.17
2023-04-30T17:13:46.790Z,23.00
2023-04-30T17:16:14.649Z,22.93
2023-04-30T17:18:42.624Z,22.94
2023-04-30T17:21:10.772Z,22.87
2023-04-30T17:23:38.325Z,22.81
2023-04-30T17:26:06.384Z,22.75
2023-04-30T17:28:34.236Z,22.73
2023-04-30T17:31:07.178Z,22.71
2023-04-30T17:33:35.394Z,22.72
2023-04-30T17:36:03.045Z,22.66
2023-04-30T17:38:30.584Z,22.56
2023-04-30T17:40:58.189Z,22.51
2023-04-30T17:43:25.942Z,22.50
2023-04-30T17:45:53.822Z,22.50
2023-04-30T17:48:21.526Z,22.44
2023-04-30T17:50:50.579Z,22.40
2023-04-30T17:53:18.015Z,22.30
2023-04-30T17:55:45.654Z,22.26
2023-04-30T17:58:13.104Z,22.20
2023-04-30T18:00:42.704Z,22.22
2023-04-30T18:03:11.146Z,22.22
2023-04-30T18:05:39.619Z,22.22
2023-04-30T18:08:07.564Z,22.22
2023-04-30T18:10:37.288Z,22.16
2023-04-30T18:13:04.832Z,21.97
2023-04-30T18:15:33.265Z,21.87
2023-04-30T18:18:01.022Z,21.80
2023-04-30T18:20:28.665Z,21.77
2023-04-30T18:22:56.744Z,21.68
2023-04-30T18:25:23.764Z,21.66
2023-04-30T18:27:51.499Z,21.63
2023-04-30T18:30:18.995Z,21.59
2023-04-30T18:32:46.865Z,21.51
2023-04-30T18:35:14.905Z,21.41
2023-04-30T18:37:42.880Z,21.36
2023-04-30T18:40:12.034Z,21.29
2023-04-30T18:42:39.568Z,21.25
2023-04-30T18:45:09.961Z,21.22
2023-04-30T18:47:37.634Z,21.15
2023-04-30T18:50:10.443Z,21.05
2023-04-30T18:52:38.135Z,21.01
2023-04-30T18:55:07.729Z,20.95
2023-04-30T18:57:35.766Z,20.89
2023-04-30T19:00:04.139Z,20.91
2023-04-30T19:02:32.633Z,20.88
2023-04-30T19:05:01.544Z,20.87
2023-04-30T19:07:29.432Z,20.79
2023-04-30T19:09:57.122Z,20.73
2023-04-30T19:12:24.877Z,20.67
2023-04-30T19:14:53.042Z,20.55
2023-04-30T19:17:21.879Z,20.60
2023-04-30T19:19:50.305Z,20.60
2023-04-30T19:22:19.495Z,20.55
2023-04-30T19:24:47.319Z,20.45
2023-04-30T19:27:15.359Z,20.45
2023-04-30T19:29:43.945Z,20.42
2023-04-30T19:32:11.730Z,20.33
2023-04-30T19:34:39.171Z,20.32
2023-04-30T19:37:07.160Z,20.26
2023-04-30T19:39:36.631Z,20.25
2023-04-30T19:42:04.324Z,20.24
2023-04-30T19:44:31.764Z,20.24
2023-04-30T19:46:59.224Z,20.22
2023-04-30T19:49:27.305Z,20.15
2023-04-30T19:51:55.053Z,20.20
2023-04-30T19:54:22.631Z,20.23
2023-04-30T19:56:52.925Z,20.18
2023-04-30T19:59:21.062Z,20.16
2023-04-30T20:01:48.765Z,20.08
2023-04-30T20:04:16.637Z,20.05
2023-04-30T20:06:44.717Z,20.02
2023-04-30T20:09:12.519Z,20.01
2023-04-30T20:11:40.388Z,20.02
2023-04-30T20:14:08.274Z,20.03
2023-04-30T20:16:36.054Z,20.01
2023-04-30T20:19:04.347Z,20.02
2023-04-30T20:21:32.111Z,19.97
2023-04-30T20:24:00.343Z,19.95
2023-04-30T20:26:50.321Z,19.87
2023-04-30T20:29:20.683Z,19.83
2023-04-30T20:31:48.194Z,19.78
2023-04-30T20:34:15.973Z,19.76
2023-04-30T20:36:43.878Z,19.77
2023-04-30T20:39:12.147Z,19.70
2023-04-30T20:41:41.207Z,19.67
2023-04-30T20:44:08.622Z,19.60
2023-04-30T20:46:36.985Z,19.54
2023-04-30T20:49:05.211Z,19.53
2023-04-30T20:51:33.076Z,19.50
2023-04-30T20:54:00.477Z,19.48
2023-04-30T20:56:28.302Z,19.45
2023-04-30T20:58:55.996Z,19.46
2023-04-30T21:01:24.331Z,19.45
2023-04-30T21:03:51.900Z,19.41
2023-04-30T21:06:19.677Z,19.37
2023-04-30T21:09:07.156Z,19.33
2023-04-30T21:11:35.440Z,19.30
2023-04-30T21:14:03.339Z,19.29
2023-04-30T21:16:31.358Z,19.28
2023-04-30T21:18:59.662Z,19.29
2023-04-30T21:21:27.528Z,19.32
2023-04-30T21:23:55.504Z,19.29
2023-04-30T21:26:23.573Z,19.19
2023-04-30T21:28:52.980Z,19.19
2023-04-30T21:31:20.557Z,19.20
2023-04-30T21:33:48.184Z,19.18
2023-04-30T21:36:16.630Z,19.16
2023-04-30T21:38:44.531Z,19.09
2023-04-30T21:41:15.787Z,19.09
2023-04-30T21:43:43.390Z,19.05
2023-04-30T21:46:11.135Z,19.03
2023-04-30T21:48:39.377Z,18.99
2023-04-30T21:51:15.108Z,18.96
2023-04-30T21:53:42.925Z,18.92
2023-04-30T21:56:10.492Z,18.92
2023-04-30T21:58:38.908Z,18.90
2023-04-30T22:01:09.882Z,18.94
2023-04-30T22:03:37.775Z,18.98
2023-04-30T22:06:06.101Z,18.96
2023-04-30T22:08:33.683Z,18.93
2023-04-30T22:11:01.412Z,18.88
2023-04-30T22:13:28.756Z,18.81
2023-04-30T22:15:56.778Z,18.77
2023-04-30T22:18:24.702Z,18.77
2023-04-30T22:20:52.310Z,18.74
2023-04-30T22:23:23.201Z,18.77
2023-04-30T22:25:50.842Z,18.76
2023-04-30T22:28:23.504Z,18.75
2023-04-30T22:30:51.259Z,18.73
2023-04-30T22:33:18.967Z,18.72
2023-04-30T22:35:46.899Z,18.69
2023-04-30T22:38:14.404Z,18.63
2023-04-30T22:40:41.996Z,18.58
2023-04-30T22:43:10.066Z,18.61
2023-04-30T22:45:38.185Z,18.68
2023-04-30T22:48:07.262Z,18.73
2023-04-30T22:50:34.872Z,18.70
2023-04-30T22:53:02.844Z,18.69
2023-04-30T22:55:31.776Z,18.67
2023-04-30T22:58:00.955Z,18.63
2023-04-30T23:00:28.925Z,18.56
2023-04-30T23:02:56.718Z,18.57
2023-04-30T23:05:24.593Z,18.57
2023-04-30T23:07:52.360Z,18.53
2023-04-30T23:10:20.247Z,18.53
2023-04-30T23:12:48.031Z,18.53
2023-04-30T23:15:16.116Z,18.61
2023-04-30T23:17:44.212Z,18.59
2023-04-30T23:20:12.430Z,18.55
2023-04-30T23:22:40.312Z,18.48
2023-04-30T23:25:09.517Z,18.47
2023-04-30T23:27:37.362Z,18.54
2023-04-30T23:30:08.178Z,18.53
2023-04-30T23:32:36.143Z,18.50
2023-04-30T23:35:04.385Z,18.52
2023-04-30T23:37:32.232Z,18.52
2023-04-30T23:40:00.883Z,18.56
2023-04-30T23:42:28.287Z,18.62
2023-04-30T23:44:56.269Z,18.51
2023-04-30T23:47:24.103Z,18.47
2023-04-30T23:49:52.273Z,18.44
2023-04-30T23:52:20.108Z,18.41
2023-04-30T23:54:48.002Z,18.33
2023-04-30T23:57:15.472Z,18.29
2023-04-30T23:59:43.876Z,18.23
